createdAt,value
2023-03-30T00:00:28.640Z,14.00
2023-03-30T00:03:00.605Z,14.00
2023-03-30T00:05:37.342Z,14.00
2023-03-30T00:08:08.664Z,14.00
2023-03-30T00:10:46.576Z,14.00
2023-03-30T00:13:18.934Z,14.00
2023-03-30T00:15:52.712Z,14.10
2023-03-30T00:18:26.571Z,14.00
2023-03-30T00:21:00.161Z,14.00
2023-03-30T00:23:34.988Z,14.10
2023-03-30T00:26:09.112Z,14.10
2023-03-30T00:29:01.464Z,14.10
2023-03-30T00:31:33.445Z,14.20
2023-03-30T00:34:08.653Z,14.20
2023-03-30T00:37:00.524Z,14.20
2023-03-30T00:39:54.789Z,14.30
2023-03-30T00:42:26.773Z,14.30
2023-03-30T00:45:21.621Z,14.30
2023-03-30T00:48:00.710Z,14.30
2023-03-30T00:50:45.276Z,14.40
2023-03-30T00:54:09.565Z,14.40
2023-03-30T00:56:42.257Z,14.40
2023-03-30T00:59:34.780Z,14.30
2023-03-30T01:02:28.643Z,14.30
2023-03-30T01:05:00.948Z,14.30
2023-03-30T01:07:35.893Z,14.30
2023-03-30T01:10:10.673Z,14.30
2023-03-30T01:12:46.688Z,14.30
2023-03-30T01:15:19.490Z,14.40
2023-03-30T01:18:29.248Z,14.30
2023-03-30T01:21:18.888Z,14.40
2023-03-30T01:24:41.608Z,14.40
2023-03-30T01:27:47.712Z,14.50
2023-03-30T01:30:59.351Z,14.60
2023-03-30T01:34:09.467Z,14.60
2023-03-30T01:37:16.662Z,14.60
2023-03-30T01:40:10.572Z,14.60
2023-03-30T01:43:03.960Z,14.60
2023-03-30T01:46:32.626Z,14.60
2023-03-30T01:49:17.369Z,14.70
2023-03-30T01:52:59.328Z,14.70
2023-03-30T01:55:56.115Z,14.80
2023-03-30T01:58:51.999Z,14.90
2023-03-30T02:01:51.873Z,14.90
2023-03-30T02:05:05.683Z,14.90
2023-03-30T02:07:44.796Z,14.80
2023-03-30T02:10:38.801Z,14.80
2023-03-30T02:13:33.800Z,14.90
2023-03-30T02:16:50.255Z,15.00
2023-03-30T02:19:23.447Z,15.10
2023-03-30T02:21:55.857Z,15.10
2023-03-30T02:24:50.641Z,15.20
2023-03-30T02:27:28.011Z,15.20
2023-03-30T02:30:22.304Z,15.20
2023-03-30T02:33:46.458Z,15.20
2023-03-30T02:37:08.322Z,15.30
2023-03-30T02:40:02.071Z,15.30
2023-03-30T02:42:34.102Z,15.30
2023-03-30T02:45:28.400Z,15.30
2023-03-30T02:48:34.517Z,15.50
2023-03-30T02:51:48.917Z,15.60
2023-03-30T02:55:36.415Z,15.60
2023-03-30T02:58:57.726Z,15.60
2023-03-30T03:01:59.808Z,15.60
2023-03-30T03:04:36.201Z,15.70
2023-03-30T03:07:26.979Z,15.70
2023-03-30T03:10:38.938Z,15.90
2023-03-30T03:13:14.385Z,15.80
2023-03-30T03:15:48.568Z,15.80
2023-03-30T03:21:35.904Z,16.00
2023-03-30T03:24:09.226Z,16.00
2023-03-30T03:27:12.431Z,16.00
2023-03-30T03:30:18.331Z,16.10
2023-03-30T03:33:13.992Z,16.20
2023-03-30T03:35:50.578Z,16.20
2023-03-30T03:38:26.274Z,16.10
2023-03-30T03:41:02.658Z,16.10
2023-03-30T03:43:59.675Z,16.10
2023-03-30T03:46:34.890Z,16.20
2023-03-30T03:49:48.095Z,16.30
2023-03-30T03:52:20.568Z,16.30
2023-03-30T03:55:13.801Z,16.30
2023-03-30T03:57:48.887Z,16.20
2023-03-30T04:00:25.846Z,16.20
2023-03-30T04:03:00.809Z,16.40
2023-03-30T04:05:34.641Z,16.40
2023-03-30T04:08:12.119Z,16.40
2023-03-30T04:10:56.309Z,16.40
2023-03-30T04:13:53.789Z,16.50
2023-03-30T04:17:02.461Z,16.70
2023-03-30T04:20:13.701Z,16.70
2023-03-30T04:23:26.026Z,16.70
2023-03-30T04:26:22.088Z,16.80
2023-03-30T04:29:22.617Z,16.80
2023-03-30T04:32:06.943Z,16.60
2023-03-30T04:34:58.390Z,16.60
2023-03-30T04:38:25.895Z,16.60
2023-03-30T04:41:39.334Z,16.60
2023-03-30T04:44:51.098Z,16.60
2023-03-30T04:47:49.230Z,16.60
2023-03-30T04:50:41.531Z,16.60
2023-03-30T04:53:34.349Z,16.60
2023-03-30T04:56:28.335Z,16.70
2023-03-30T04:59:03.420Z,16.70
2023-03-30T05:02:13.441Z,16.70
2023-03-30T05:05:13.419Z,16.80
2023-03-30T05:08:18.213Z,16.90
2023-03-30T05:11:09.724Z,16.90
2023-03-30T05:13:58.795Z,17.00
2023-03-30T05:17:08.860Z,17.10
2023-03-30T05:20:03.898Z,17.10
2023-03-30T05:23:24.738Z,17.30
2023-03-30T05:26:17.523Z,17.40
2023-03-30T05:29:33.499Z,17.40
2023-03-30T05:33:05.588Z,17.40
2023-03-30T05:36:00.426Z,17.60
2023-03-30T05:38:54.243Z,17.60
2023-03-30T05:41:59.427Z,17.50
2023-03-30T05:44:50.031Z,17.50
2023-03-30T05:47:39.818Z,17.50
2023-03-30T05:51:25.185Z,17.60
2023-03-30T05:54:09.194Z,17.60
2023-03-30T05:57:03.381Z,17.70
2023-03-30T06:00:22.366Z,17.80
2023-03-30T06:03:04.767Z,17.90
2023-03-30T06:06:00.215Z,17.90
2023-03-30T06:08:52.589Z,17.90
2023-03-30T06:11:30.816Z,18.00
2023-03-30T06:14:15.181Z,18.00
2023-03-30T06:16:58.848Z,18.10
2023-03-30T06:19:30.805Z,18.30
2023-03-30T06:22:04.561Z,18.20
2023-03-30T06:25:21.052Z,18.20
2023-03-30T06:28:15.698Z,18.30
2023-03-30T06:31:08.753Z,18.40
2023-03-30T06:33:42.043Z,18.40
2023-03-30T06:36:16.229Z,18.40
2023-03-30T06:39:11.229Z,18.50
2023-03-30T06:42:03.430Z,18.60
2023-03-30T06:45:13.940Z,18.50
2023-03-30T06:48:06.871Z,18.60
2023-03-30T06:51:18.604Z,18.60
2023-03-30T06:53:53.918Z,18.60
2023-03-30T06:56:28.192Z,18.70
2023-03-30T06:59:17.207Z,18.60
2023-03-30T07:02:41.845Z,18.50
2023-03-30T07:05:33.765Z,18.50
2023-03-30T07:08:15.946Z,18.30
2023-03-30T07:10:57.342Z,18.50
2023-03-30T07:13:56.537Z,18.50
2023-03-30T07:16:54.444Z,18.60
2023-03-30T07:19:47.316Z,18.60
2023-03-30T07:22:22.365Z,18.70
2023-03-30T07:25:14.034Z,18.70
2023-03-30T07:28:12.812Z,18.90
2023-03-30T07:30:46.340Z,19.10
2023-03-30T07:36:30.002Z,19.00
2023-03-30T07:39:13.976Z,19.00
2023-03-30T07:41:53.864Z,18.80
2023-03-30T07:44:36.008Z,18.80
2023-03-30T07:47:30.034Z,18.70
2023-03-30T07:50:03.070Z,18.60
2023-03-30T07:52:57.258Z,18.60
2023-03-30T07:55:47.504Z,18.70
2023-03-30T07:58:29.647Z,18.70
2023-03-30T08:01:11.511Z,18.70
2023-03-30T08:04:07.036Z,18.70
2023-03-30T08:06:43.889Z,18.60
2023-03-30T08:09:19.063Z,18.60
2023-03-30T08:12:11.593Z,18.60
2023-03-30T08:15:22.784Z,18.50
2023-03-30T08:18:15.614Z,18.60
2023-03-30T08:20:52.183Z,18.40
2023-03-30T08:23:45.167Z,18.40
2023-03-30T08:26:18.363Z,18.30
2023-03-30T08:29:00.239Z,18.20
2023-03-30T08:32:13.029Z,18.20
2023-03-30T08:34:46.460Z,18.20
2023-03-30T08:37:37.870Z,18.10
2023-03-30T08:40:34.047Z,18.20
2023-03-30T08:44:02.654Z,18.20
2023-03-30T08:46:54.099Z,18.20
2023-03-30T08:49:29.440Z,18.10
2023-03-30T08:52:47.076Z,18.10
2023-03-30T08:55:56.721Z,18.10
2023-03-30T08:59:05.416Z,18.00
2023-03-30T09:01:55.420Z,18.00
2023-03-30T09:05:04.438Z,18.00
2023-03-30T09:08:35.060Z,17.90
2023-03-30T09:11:17.760Z,18.00
2023-03-30T09:14:35.487Z,17.90
2023-03-30T09:17:34.128Z,17.90
2023-03-30T09:20:17.168Z,17.80
2023-03-30T09:23:20.422Z,17.70
2023-03-30T09:26:44.155Z,17.80
2023-03-30T09:29:45.591Z,17.70
2023-03-30T09:32:51.695Z,17.80
2023-03-30T09:35:56.800Z,17.70
2023-03-30T09:38:29.735Z,17.70
2023-03-30T09:41:24.471Z,17.70
2023-03-30T09:44:36.262Z,17.70
2023-03-30T09:47:40.640Z,17.60
2023-03-30T09:50:36.147Z,17.50
2023-03-30T09:53:35.030Z,17.50
2023-03-30T09:56:29.252Z,17.60
2023-03-30T09:59:32.560Z,17.60
2023-03-30T10:02:25.487Z,17.60
2023-03-30T10:05:01.174Z,17.60
2023-03-30T10:07:42.420Z,17.60
2023-03-30T10:10:35.070Z,17.50
2023-03-30T10:13:18.363Z,17.50
2023-03-30T10:15:56.328Z,17.40
2023-03-30T10:18:43.906Z,17.40
2023-03-30T10:21:24.815Z,17.20
2023-03-30T10:24:29.520Z,17.10
2023-03-30T10:27:18.747Z,17.10
2023-03-30T10:30:14.064Z,17.10
2023-03-30T10:32:49.640Z,17.20
2023-03-30T10:35:48.969Z,17.20
2023-03-30T10:38:43.356Z,17.10
2023-03-30T10:41:23.296Z,17.20
2023-03-30T10:44:03.642Z,17.10
2023-03-30T10:46:37.470Z,16.90
2023-03-30T10:49:19.294Z,17.00
2023-03-30T10:52:23.443Z,17.00
2023-03-30T10:55:39.152Z,16.90
2023-03-30T10:58:21.326Z,17.00
2023-03-30T11:01:36.315Z,17.00
2023-03-30T11:04:38.566Z,16.90
2023-03-30T11:07:59.803Z,16.90
2023-03-30T11:10:44.973Z,16.60
2023-03-30T11:14:03.711Z,16.70
2023-03-30T11:16:59.346Z,16.70
2023-03-30T11:19:59.879Z,16.60
2023-03-30T11:22:56.462Z,16.70
2023-03-30T11:26:10.290Z,16.70
2023-03-30T11:29:12.169Z,16.50
2023-03-30T11:32:26.099Z,16.30
2023-03-30T11:36:04.431Z,16.50
2023-03-30T11:39:18.442Z,16.40
2023-03-30T11:42:25.289Z,16.50
2023-03-30T11:48:14.486Z,16.30
2023-03-30T11:51:37.711Z,16.30
2023-03-30T11:54:59.844Z,16.50
2023-03-30T11:58:06.783Z,16.40
2023-03-30T12:01:04.753Z,16.50
2023-03-30T12:04:04.789Z,16.30
2023-03-30T12:07:21.900Z,16.40
2023-03-30T12:10:05.966Z,16.50
2023-03-30T12:13:00.906Z,16.40
2023-03-30T12:15:57.438Z,16.20
2023-03-30T12:18:52.768Z,16.20
2023-03-30T12:22:00.367Z,16.20
2023-03-30T12:25:05.751Z,16.40
2023-03-30T12:28:13.529Z,16.50
2023-03-30T12:31:04.667Z,16.20
2023-03-30T12:34:24.786Z,16.40
2023-03-30T12:37:37.956Z,16.40
2023-03-30T12:40:23.830Z,16.30
2023-03-30T12:43:57.095Z,16.30
2023-03-30T12:47:33.759Z,16.40
2023-03-30T12:50:30.596Z,16.30
2023-03-30T12:53:18.343Z,16.30
2023-03-30T12:56:38.859Z,16.30
2023-03-30T12:59:29.392Z,16.30
2023-03-30T13:02:39.020Z,16.30
2023-03-30T13:05:30.598Z,16.20
2023-03-30T13:08:53.298Z,16.10
2023-03-30T13:12:24.670Z,16.10
2023-03-30T13:15:59.682Z,16.20
2023-03-30T13:18:44.166Z,16.20
2023-03-30T13:21:25.564Z,16.20
2023-03-30T13:27:24.870Z,16.10
2023-03-30T13:30:19.676Z,16.10
2023-03-30T13:33:31.649Z,16.20
2023-03-30T13:36:33.066Z,16.20
2023-03-30T13:39:57.940Z,16.20
2023-03-30T13:43:09.418Z,16.20
2023-03-30T13:46:17.487Z,16.20
2023-03-30T13:49:28.541Z,16.10
2023-03-30T13:52:51.650Z,16.10
2023-03-30T13:55:44.826Z,16.10
2023-03-30T13:58:51.662Z,16.10
2023-03-30T14:01:30.622Z,16.10
2023-03-30T14:07:26.078Z,16.10
2023-03-30T14:10:32.279Z,16.00
2023-03-30T14:13:40.148Z,15.90
2023-03-30T14:16:25.883Z,16.00
2023-03-30T14:19:33.316Z,16.10
2023-03-30T14:22:43.775Z,16.00
2023-03-30T14:26:08.564Z,16.00
2023-03-30T14:29:33.537Z,16.00
2023-03-30T14:32:10.321Z,16.00
2023-03-30T14:34:48.793Z,16.00
2023-03-30T14:38:16.509Z,16.00
2023-03-30T14:41:12.271Z,16.00
2023-03-30T14:44:07.544Z,15.90
2023-03-30T14:47:03.428Z,15.70
2023-03-30T14:49:39.525Z,15.80
2023-03-30T14:52:36.087Z,15.90
2023-03-30T14:55:18.364Z,15.90
2023-03-30T15:01:13.027Z,15.80
2023-03-30T15:04:20.990Z,15.90
2023-03-30T15:08:05.948Z,15.90
2023-03-30T15:11:57.166Z,15.80
2023-03-30T15:14:36.036Z,15.80
2023-03-30T15:17:50.451Z,15.80
2023-03-30T15:20:23.103Z,15.80
2023-03-30T15:23:28.426Z,15.70
2023-03-30T15:26:26.638Z,15.80
2023-03-30T15:29:03.454Z,15.70
2023-03-30T15:31:36.371Z,15.70
2023-03-30T15:34:39.675Z,15.70
2023-03-30T15:37:45.148Z,15.70
2023-03-30T15:40:52.099Z,15.60
2023-03-30T15:43:59.280Z,15.60
2023-03-30T15:46:51.075Z,15.60
2023-03-30T15:49:31.318Z,15.70
2023-03-30T15:52:35.237Z,15.70
2023-03-30T15:55:17.860Z,15.70
2023-03-30T15:58:15.328Z,15.70
2023-03-30T16:01:09.377Z,15.70
2023-03-30T16:03:58.729Z,15.60
2023-03-30T16:06:33.045Z,15.60
2023-03-30T16:09:11.756Z,15.60
2023-03-30T16:11:51.292Z,15.70
2023-03-30T16:15:05.668Z,15.60
2023-03-30T16:17:40.563Z,15.60
2023-03-30T16:20:34.468Z,15.60
2023-03-30T16:23:46.981Z,15.60
2023-03-30T16:26:38.718Z,15.60
2023-03-30T16:29:29.403Z,15.40
2023-03-30T16:32:01.256Z,15.50
2023-03-30T16:34:34.750Z,15.50
2023-03-30T16:37:29.794Z,15.60
2023-03-30T16:40:02.376Z,15.60
2023-03-30T16:43:23.626Z,15.60
2023-03-30T16:46:18.002Z,15.50
2023-03-30T16:48:52.102Z,15.60
2023-03-30T16:51:25.639Z,15.60
2023-03-30T16:54:01.514Z,15.60
2023-03-30T16:57:18.729Z,15.60
2023-03-30T16:59:52.113Z,15.60
2023-03-30T17:02:28.845Z,15.60
2023-03-30T17:05:06.309Z,15.50
2023-03-30T17:07:43.361Z,15.50
2023-03-30T17:11:03.624Z,15.50
2023-03-30T17:13:56.613Z,15.50
2023-03-30T17:17:09.298Z,15.50
2023-03-30T17:20:01.245Z,15.50
2023-03-30T17:22:35.491Z,15.50
2023-03-30T17:25:31.771Z,15.50
2023-03-30T17:28:06.970Z,15.50
2023-03-30T17:30:44.187Z,15.50
2023-03-30T17:33:18.137Z,15.40
2023-03-30T17:36:19.925Z,15.50
2023-03-30T17:38:53.314Z,15.50
2023-03-30T17:41:24.480Z,15.60
2023-03-30T17:43:58.027Z,15.50
2023-03-30T17:46:30.184Z,15.50
2023-03-30T17:49:07.005Z,15.50
2023-03-30T17:51:40.696Z,15.50
2023-03-30T17:54:35.280Z,15.50
2023-03-30T17:57:07.725Z,15.50
2023-03-30T17:59:41.129Z,15.50
2023-03-30T18:02:17.899Z,15.50
2023-03-30T18:04:50.461Z,15.50
2023-03-30T18:07:23.499Z,15.50
2023-03-30T18:09:55.728Z,15.50
2023-03-30T18:12:29.266Z,15.40
2023-03-30T18:15:01.735Z,15.30
2023-03-30T18:17:33.472Z,15.40
2023-03-30T18:20:16.262Z,15.50
2023-03-30T18:22:48.713Z,15.40
2023-03-30T18:25:31.467Z,15.40
2023-03-30T18:28:05.993Z,15.20
2023-03-30T18:30:43.725Z,15.30
2023-03-30T18:33:20.780Z,15.30
2023-03-30T18:36:06.707Z,15.40
2023-03-30T18:38:39.410Z,15.30
2023-03-30T18:41:16.612Z,15.40
2023-03-30T18:43:48.712Z,15.40
2023-03-30T18:46:21.646Z,15.40
2023-03-30T18:48:53.772Z,15.40
2023-03-30T18:51:25.125Z,15.40
2023-03-30T18:53:58.506Z,15.40
2023-03-30T18:56:31.141Z,15.40
2023-03-30T18:59:07.936Z,15.40
2023-03-30T19:01:59.159Z,15.40
2023-03-30T19:04:31.776Z,15.40
2023-03-30T19:07:04.026Z,15.40
2023-03-30T19:09:43.128Z,15.40
2023-03-30T19:12:16.258Z,15.40
2023-03-30T19:14:48.018Z,15.40
2023-03-30T19:17:20.091Z,15.40
2023-03-30T19:19:52.272Z,15.40
2023-03-30T19:22:23.920Z,15.40
2023-03-30T19:24:55.864Z,15.40
2023-03-30T19:27:28.097Z,15.40
2023-03-30T19:30:00.222Z,15.40
2023-03-30T19:32:31.877Z,15.40
2023-03-30T19:35:23.620Z,15.30
2023-03-30T19:37:56.364Z,15.30
2023-03-30T19:40:28.610Z,15.40
2023-03-30T19:42:59.861Z,15.30
2023-03-30T19:45:32.706Z,15.40
2023-03-30T19:48:05.255Z,15.30
2023-03-30T19:50:37.208Z,15.40
2023-03-30T19:53:09.487Z,15.40
2023-03-30T19:55:41.728Z,15.30
2023-03-30T19:58:15.048Z,15.30
2023-03-30T20:00:50.948Z,15.40
2023-03-30T20:03:22.728Z,15.30
2023-03-30T20:05:54.444Z,15.30
2023-03-30T20:08:27.001Z,15.30
2023-03-30T20:10:59.401Z,15.30
2023-03-30T20:13:31.946Z,15.30
2023-03-30T20:16:03.690Z,15.30
2023-03-30T20:18:37.087Z,15.30
2023-03-30T20:21:08.945Z,15.30
2023-03-30T20:23:40.565Z,15.30
2023-03-30T20:26:12.521Z,15.30
2023-03-30T20:28:43.988Z,15.30
2023-03-30T20:31:16.133Z,15.20
2023-03-30T20:33:48.015Z,15.30
2023-03-30T20:36:19.379Z,15.20
2023-03-30T20:38:51.789Z,15.30
2023-03-30T20:41:23.815Z,15.20
2023-03-30T20:43:57.614Z,15.20
2023-03-30T20:46:37.003Z,15.20
2023-03-30T20:49:09.932Z,15.30
2023-03-30T20:51:44.897Z,15.30
2023-03-30T20:54:17.578Z,15.30
2023-03-30T20:56:50.617Z,15.30
2023-03-30T20:59:22.933Z,15.20
2023-03-30T21:01:54.747Z,15.20
2023-03-30T21:04:26.397Z,15.10
2023-03-30T21:06:58.004Z,15.20
2023-03-30T21:09:29.876Z,15.20
2023-03-30T21:12:01.173Z,15.20
2023-03-30T21:14:33.415Z,15.20
2023-03-30T21:17:05.477Z,15.30
2023-03-30T21:19:36.973Z,15.20
2023-03-30T21:22:28.455Z,15.20
2023-03-30T21:24:59.884Z,15.20
2023-03-30T21:27:31.653Z,15.20
2023-03-30T21:30:04.732Z,15.20
2023-03-30T21:32:36.736Z,15.20
2023-03-30T21:35:09.254Z,15.10
2023-03-30T21:38:01.527Z,15.10
2023-03-30T21:40:34.736Z,15.20
2023-03-30T21:43:06.173Z,15.10
2023-03-30T21:45:37.604Z,15.20
2023-03-30T21:48:09.591Z,15.20
2023-03-30T21:50:41.344Z,15.20
2023-03-30T21:53:12.697Z,15.20
2023-03-30T21:56:05.814Z,15.20
2023-03-30T21:58:37.689Z,15.20
2023-03-30T22:01:12.430Z,15.20
2023-03-30T22:03:56.102Z,15.20
2023-03-30T22:06:33.207Z,15.20
2023-03-30T22:09:08.133Z,15.10
2023-03-30T22:11:41.186Z,15.20
2023-03-30T22:14:21.228Z,15.20
2023-03-30T22:16:52.525Z,15.20
2023-03-30T22:19:25.038Z,15.10
2023-03-30T22:21:59.031Z,15.20
2023-03-30T22:24:55.424Z,15.10
2023-03-30T22:27:34.434Z,15.10
2023-03-30T22:30:10.310Z,15.10
2023-03-30T22:32:53.256Z,15.10
2023-03-30T22:35:51.412Z,15.10
2023-03-30T22:38:27.758Z,15.10
2023-03-30T22:41:46.148Z,15.10
2023-03-30T22:44:37.931Z,15.20
2023-03-30T22:47:12.380Z,15.20
2023-03-30T22:49:43.417Z,15.10
2023-03-30T22:52:15.021Z,15.10
2023-03-30T22:54:48.418Z,15.00
2023-03-30T22:57:25.820Z,15.00
2023-03-30T22:59:58.690Z,15.10
2023-03-30T23:02:32.670Z,15.10
2023-03-30T23:05:10.668Z,15.10
2023-03-30T23:07:45.942Z,15.10
2023-03-30T23:10:24.147Z,15.20
2023-03-30T23:13:17.528Z,15.00
2023-03-30T23:15:52.251Z,14.90
2023-03-30T23:18:24.318Z,15.00
2023-03-30T23:21:16.150Z,15.00
2023-03-30T23:23:48.330Z,15.00
2023-03-30T23:26:21.274Z,15.00
2023-03-30T23:28:53.300Z,15.10
2023-03-30T23:31:45.052Z,15.00
2023-03-30T23:34:18.040Z,15.00
2023-03-30T23:36:51.186Z,15.10
2023-03-30T23:39:24.237Z,15.10
2023-03-30T23:41:59.456Z,15.10
2023-03-30T23:44:31.741Z,15.00
2023-03-30T23:47:03.947Z,15.00
2023-03-30T23:49:36.690Z,15.10
2023-03-30T23:52:08.793Z,15.10
2023-03-30T23:54:42.279Z,15.00
2023-03-30T23:57:14.795Z,14.90
2023-03-30T23:59:48.601Z,15.00
